Etusivu
METAR-TAF:

METAR-TAF

Lentoasemat :

Destin-Fort Walton Beach Airport

Destin, Florida, Yhdysvallat

Leveyspiiri: 30-23-36N, Pituuspiiri: 086-28-03W, korkeus merenpinnasta: 6 m

Tämänhetkinen sää

Tämä raportti tehtiin 35 minuuttia sitten, kello 06.53 UTC
Tuuli 5 kn pohjoisesta
Lämpötila 21°C
Kosteus 64%
Ilmanpaine 1013 hPa
Näkyvyys: 16.1 km
Muutamia pilviä 9500 ft:n korkeudessa
Hajonneita pilviä 11000 ft:n korkeudessa

METAR: KDTS 050653Z AUTO 35005KT 10SM FEW095 BKN110 21/14 A2992 RMK AO2 SLP132 T02060139

Aika: 02:28 (07:28 UTC)


TAF: puuttuu

Säähavainnot ja -ennusteet yli 4000 lentoasemalta (METAR- ja TAF-raportit).

Käytössä olevat sääasemat on merkitty karttaan keltaisilla ja punaisilla pisteillä.

Aseta hiiri pisteen päälle nähdäksesi sääaseman nimen.

Klikkaa sitten nähdäksesi säähavainnot ja -ennusteet.

Kartan vaihtaminen: klikkaa mustalla rastilla varustettuja vihreitä pisteitä, niin voit zoomata sisään; viivalla varustettua vihreää pistettä, niin voit zoomata ulos tai vihreitä nuolia, niin pääset viereisille kartoille.


METAR-TAF: